Time;durP1;ratioP1;P1;durP2;ratioP2;P2;SDS_P1;SDS_P2;PMS_P1;PMS_P2;Temp;Humidity;BMP_temperature;BMP_pressure;BME280_temperature;BME280_humidity;BME280_pressure;Samples;Min_cycle;Max_cycle;Signal;HPM_P1;HPM_P2
2022/04/19 00:00:54;;;;;;;11.15;6.07;;;9.80;77.20;;;8.12;66.38;100439.97;5044800;28;20325;-89
2022/04/19 00:03:22;;;;;;;11.18;5.95;;;9.80;77.10;;;8.09;66.32;100428.63;5040750;28;20128;-90
2022/04/19 00:05:49;;;;;;;10.05;5.20;;;9.70;77.20;;;8.06;66.10;100427.13;5031799;28;20113;-89
2022/04/19 00:08:17;;;;;;;8.65;5.20;;;9.70;77.20;;;8.09;67.00;100434.06;5032754;28;20066;-88
2022/04/19 00:10:46;;;;;;;14.65;6.07;;;9.70;77.50;;;8.05;66.55;100433.53;5036874;28;20431;-89
2022/04/19 00:13:16;;;;;;;10.75;5.32;;;9.70;77.60;;;7.99;67.06;100423.38;5051727;28;20124;-90
2022/04/19 00:15:44;;;;;;;9.27;4.90;;;9.60;77.80;;;7.90;67.21;100425.28;5050055;28;20039;-88
2022/04/19 00:18:12;;;;;;;9.43;5.05;;;9.60;77.60;;;7.88;67.72;100426.44;5051797;28;20136;-89
2022/04/19 00:20:42;;;;;;;9.23;5.32;;;9.60;78.10;;;7.83;68.01;100427.81;5049877;28;20497;-88
2022/04/19 00:23:12;;;;;;;10.60;5.47;;;9.50;78.30;;;7.78;67.96;100426.63;5051563;28;20098;-88
2022/04/19 00:25:41;;;;;;;14.13;5.63;;;9.50;78.50;;;7.75;68.41;100427.81;5048483;28;20059;-88
2022/04/19 00:28:10;;;;;;;9.93;5.25;;;9.50;78.80;;;7.66;68.13;100420.69;5051515;28;20052;-88
2022/04/19 00:30:38;;;;;;;9.13;4.93;;;9.40;78.60;;;7.67;68.75;100429.66;5046591;28;20457;-89
2022/04/19 00:33:05;;;;;;;10.23;4.90;;;9.40;78.90;;;7.68;68.90;100421.34;5031633;28;20045;-89
2022/04/19 00:35:32;;;;;;;12.80;5.13;;;9.30;79.40;;;7.64;69.71;100434.38;5033051;28;20036;-89
2022/04/19 00:38:02;;;;;;;10.40;5.40;;;9.30;80.00;;;7.55;70.56;100423.72;5048596;28;20494;-89
2022/04/19 00:40:29;;;;;;;10.80;5.10;;;9.30;80.60;;;7.38;70.90;100426.38;5048151;28;20737;-89
2022/04/19 00:42:57;;;;;;;8.27;4.72;;;9.20;80.40;;;7.36;70.75;100419.44;5044726;28;20413;-89
2022/04/19 00:45:26;;;;;;;12.15;5.53;;;9.20;80.40;;;7.29;70.78;100411.16;5035953;28;20040;-89
2022/04/19 00:47:55;;;;;;;9.05;4.90;;;9.10;80.30;;;7.26;71.25;100411.47;5046136;28;20040;-89
2022/04/19 00:50:24;;;;;;;9.75;4.80;;;9.10;80.40;;;7.25;71.36;100415.19;5033473;28;20488;-88
2022/04/19 00:52:52;;;;;;;8.85;4.78;;;9.10;80.10;;;7.26;70.87;100399.81;5049680;28;20102;-90
2022/04/19 00:55:22;;;;;;;8.27;4.50;;;9.00;80.00;;;7.22;70.87;100408.25;5047604;28;20045;-89
2022/04/19 00:57:50;;;;;;;11.20;4.78;;;9.00;79.80;;;7.16;70.85;100402.63;5029634;28;20049;-88
2022/04/19 01:00:20;;;;;;;9.63;4.80;;;9.00;79.90;;;7.20;70.43;100399.47;5048101;28;20095;-88
2022/04/19 01:03:00;;;;;;;8.45;4.80;;;9.00;80.00;;;7.14;71.38;100400.13;5049308;28;20456;-89
2022/04/19 01:05:27;;;;;;;7.82;4.90;;;8.90;80.30;;;7.14;70.76;100396.56;5040505;28;20465;-89
2022/04/19 01:07:55;;;;;;;8.65;5.20;;;8.90;80.20;;;7.11;71.27;100402.31;5029318;28;20144;-88
2022/04/19 01:10:29;;;;;;;9.93;5.15;;;8.90;80.60;;;7.10;71.29;100400.59;5033252;28;20529;-88
2022/04/19 01:15:41;;;;;;;10.05;5.35;;;8.80;80.80;;;7.02;72.44;100394.16;5044639;28;20048;-88
2022/04/19 01:18:14;;;;;;;8.55;4.88;;;8.80;81.10;;;6.98;72.40;100395.50;5040069;28;20520;-89
2022/04/19 01:20:44;;;;;;;8.93;4.45;;;8.80;81.60;;;6.89;73.43;100391.06;5029360;28;20128;-88
2022/04/19 01:23:20;;;;;;;8.63;5.05;;;8.80;81.90;;;6.82;73.25;100387.34;5029243;28;20064;-88
2022/04/19 01:25:47;;;;;;;8.88;4.68;;;8.70;82.20;;;6.76;73.24;100390.69;5029215;28;20486;-88
2022/04/19 01:28:15;;;;;;;13.48;5.32;;;8.70;82.10;;;6.76;73.45;100377.16;5047029;22;20056;-81
2022/04/19 01:30:43;;;;;;;9.05;4.72;;;8.70;82.10;;;6.74;73.81;100379.19;5043023;28;20051;-81
2022/04/19 01:33:14;;;;;;;6.72;4.22;;;8.70;82.20;;;6.83;73.52;100381.78;5048463;28;20072;-81
2022/04/19 01:35:42;;;;;;;7.63;4.10;;;8.60;82.50;;;6.75;74.46;100386.28;5048597;28;20079;-81
2022/04/19 01:38:11;;;;;;;7.20;4.65;;;8.50;83.00;;;6.69;74.78;100386.94;5049100;28;20060;-81
2022/04/19 01:40:42;;;;;;;8.45;5.15;;;8.50;83.10;;;6.67;74.61;100378.16;5042520;28;20058;-81
2022/04/19 01:43:13;;;;;;;8.57;4.75;;;8.50;83.30;;;6.54;74.86;100379.44;5028683;28;20149;-81
2022/04/19 01:45:50;;;;;;;9.48;4.80;;;8.40;83.30;;;6.49;75.27;100387.19;5028879;28;20053;-81
2022/04/19 01:48:22;;;;;;;9.30;5.07;;;8.40;83.30;;;6.50;75.29;100380.78;5025201;28;20048;-81
2022/04/19 01:50:49;;;;;;;9.23;4.82;;;8.50;83.30;;;6.45;75.78;100378.56;5029372;28;20497;-81
2022/04/19 01:53:17;;;;;;;9.60;4.38;;;8.30;83.30;;;6.50;75.50;100382.63;5028657;28;20045;-81
2022/04/19 01:55:46;;;;;;;8.43;4.70;;;8.30;83.20;;;6.47;75.59;100381.09;5036258;28;20049;-81
2022/04/19 01:58:40;;;;;;;7.95;4.68;;;8.30;83.30;;;6.43;75.78;100379.72;5021303;28;20069;-82
2022/04/19 02:01:10;;;;;;;9.25;4.82;;;8.30;83.40;;;6.41;76.12;100368.22;5028295;28;20053;-82
2022/04/19 02:03:37;;;;;;;8.80;4.72;;;8.30;83.60;;;6.50;75.65;100369.97;5028752;28;20045;-81
2022/04/19 02:06:08;;;;;;;9.93;4.75;;;8.30;83.70;;;6.46;75.90;100376.72;5028681;28;20064;-82
2022/04/19 02:08:38;;;;;;;8.68;4.57;;;8.30;83.90;;;6.36;76.43;100376.81;5029380;28;20057;-82
2022/04/19 02:11:07;;;;;;;9.68;4.78;;;8.30;83.90;;;6.31;76.58;100370.22;5028439;28;20072;-82
2022/04/19 02:13:34;;;;;;;10.43;4.82;;;8.30;83.90;;;6.28;76.91;100368.66;5028410;28;20529;-82
2022/04/19 02:16:25;;;;;;;10.10;4.65;;;8.20;84.20;;;6.28;77.22;100371.34;5028307;28;20052;-82
2022/04/19 02:18:52;;;;;;;9.30;4.80;;;8.20;84.80;;;6.17;77.99;100367.09;5028188;28;20045;-82
2022/04/19 02:21:20;;;;;;;9.25;4.75;;;8.20;84.80;;;6.11;78.41;100367.75;5028164;28;20509;-82
2022/04/19 02:23:47;;;;;;;7.22;4.35;;;8.10;84.90;;;6.10;78.37;100366.03;5029411;28;20184;-82
2022/04/19 02:26:15;;;;;;;8.57;4.80;;;8.10;85.00;;;6.16;78.24;100364.53;5030869;28;20029;-82
2022/04/19 02:28:45;;;;;;;6.72;4.00;;;8.10;84.90;;;6.18;78.04;100373.34;5029228;28;20050;-81
2022/04/19 02:31:18;;;;;;;8.85;4.85;;;8.10;85.00;;;6.17;78.04;100364.38;5028247;28;20429;-82
2022/04/19 02:33:53;;;;;;;9.18;4.85;;;8.10;85.20;;;6.09;78.30;100364.31;5028228;28;20667;-81
2022/04/19 02:36:21;;;;;;;9.63;4.85;;;8.00;85.40;;;6.00;78.81;100366.13;5028364;28;20430;-81
2022/04/19 02:38:48;;;;;;;8.68;4.70;;;8.00;85.40;;;5.98;78.94;100373.56;5028016;28;20595;-82
2022/04/19 02:41:16;;;;;;;8.13;4.65;;;8.00;85.50;;;5.88;79.23;100365.53;5027689;28;20498;-82
2022/04/19 02:43:48;;;;;;;8.68;5.18;;;7.90;85.60;;;5.91;80.11;100371.63;5029204;28;20076;-81
2022/04/19 02:46:16;;;;;;;9.60;4.82;;;7.90;86.00;;;5.84;80.54;100374.91;5028056;28;20049;-82
2022/04/19 02:48:49;;;;;;;11.20;4.70;;;7.90;86.10;;;5.83;80.33;100370.53;5027997;28;20083;-82
2022/04/19 02:51:18;;;;;;;9.18;4.47;;;7.90;86.20;;;5.76;80.28;100374.88;5032123;28;20057;-82
2022/04/19 02:53:45;;;;;;;7.38;4.63;;;7.80;85.80;;;5.75;80.52;100378.59;5048088;28;20406;-82
2022/04/19 02:56:12;;;;;;;8.77;4.65;;;7.80;86.00;;;5.71;80.52;100382.59;5039792;28;20482;-82
2022/04/19 02:58:41;;;;;;;8.02;4.88;;;7.80;86.00;;;5.73;80.58;100377.03;5029407;28;20056;-81
2022/04/19 03:01:08;;;;;;;8.88;4.95;;;7.70;86.20;;;5.73;80.58;100374.31;5038092;28;20076;-82
2022/04/19 03:03:36;;;;;;;8.55;4.80;;;7.70;86.30;;;5.78;80.23;100382.81;5043968;28;20099;-81
2022/04/19 03:06:03;;;;;;;10.77;4.93;;;7.80;86.10;;;5.75;80.32;100383.13;5033011;28;20084;-81
2022/04/19 03:08:32;;;;;;;8.85;4.85;;;7.70;86.10;;;5.69;80.71;100376.50;5031701;28;20061;-82
2022/04/19 03:11:00;;;;;;;8.50;5.00;;;7.70;86.30;;;5.64;80.56;100376.13;5031552;28;20080;-81
2022/04/19 03:13:28;;;;;;;8.27;4.80;;;7.70;86.10;;;5.59;81.06;100373.03;5031832;28;20053;-82
2022/04/19 03:15:57;;;;;;;10.07;5.28;;;7.60;86.10;;;5.55;80.85;100374.38;5031619;28;20049;-82
2022/04/19 03:18:25;;;;;;;10.15;5.38;;;7.70;86.20;;;5.59;80.88;100367.66;5032901;28;20073;-82
2022/04/19 03:20:53;;;;;;;11.07;5.05;;;7.60;86.30;;;5.58;80.82;100361.41;5048110;28;20049;-81
2022/04/19 03:28:56;;;;;;;10.80;5.10;;;7.60;86.40;;;5.40;82.17;100372.19;5051546;28;20307;-82
2022/04/19 03:31:24;;;;;;;7.43;4.35;;;7.50;87.00;;;5.39;82.27;100370.53;5039467;28;20421;-82
2022/04/19 03:33:53;;;;;;;9.43;5.03;;;7.50;87.00;;;5.44;81.99;100376.28;5038745;28;20045;-82
2022/04/19 03:36:22;;;;;;;11.23;5.05;;;7.50;87.00;;;5.33;82.30;100365.75;5031329;28;20057;-82
2022/04/19 03:38:50;;;;;;;7.90;4.72;;;7.50;87.20;;;5.35;82.25;100371.84;5031641;28;20051;-82
2022/04/19 03:41:17;;;;;;;7.22;4.43;;;7.40;86.90;;;5.36;82.05;100378.91;5030649;28;20441;-82
2022/04/19 03:43:45;;;;;;;8.65;4.90;;;7.40;87.00;;;5.35;82.24;100373.66;5032716;28;20041;-82
2022/04/19 03:46:12;;;;;;;10.02;4.97;;;7.40;86.90;;;5.34;82.49;100377.38;5030916;28;20433;-82
2022/04/19 03:48:41;;;;;;;7.70;4.80;;;7.40;86.90;;;5.32;82.70;100374.00;5029017;28;20056;-82
2022/04/19 03:51:08;;;;;;;9.85;5.20;;;7.40;87.30;;;5.30;82.48;100371.44;5033197;28;20050;-82
2022/04/19 03:53:37;;;;;;;8.10;4.65;;;7.40;87.40;;;5.24;82.74;100372.06;5031237;28;20052;-82
2022/04/19 03:56:05;;;;;;;10.40;5.10;;;7.30;87.50;;;5.16;83.59;100377.34;5032264;28;20044;-82
2022/04/19 03:58:33;;;;;;;10.88;4.95;;;7.30;87.70;;;5.11;84.18;100376.97;5031090;28;20080;-82
2022/04/19 04:01:02;;;;;;;10.30;5.30;;;7.30;87.80;;;5.17;83.96;100376.38;5030088;28;20052;-82
2022/04/19 04:03:30;;;;;;;9.55;5.28;;;7.30;87.80;;;5.13;83.83;100378.53;5030902;28;20048;-82
2022/04/19 04:05:59;;;;;;;8.55;5.30;;;7.30;87.90;;;5.12;83.95;100382.19;5030654;28;20050;-82
2022/04/19 04:08:26;;;;;;;8.43;4.97;;;7.30;88.10;;;5.05;83.99;100373.88;5011099;28;20406;-82
2022/04/19 04:10:54;;;;;;;7.40;4.68;;;7.20;87.80;;;5.05;83.87;100381.13;5029666;28;20498;-83
2022/04/19 04:13:26;;;;;;;;;;;7.20;87.80;;;5.01;84.43;100375.19;5030288;28;20095;-75
2022/04/19 04:15:53;;;;;;;9.65;5.28;;;7.20;88.00;;;4.97;84.63;100373.81;5029469;28;19958;-77
2022/04/19 04:18:20;;;;;;;10.38;4.82;;;7.20;88.20;;;4.97;84.30;100379.19;5030024;28;20037;-77
2022/04/19 04:20:48;;;;;;;11.95;5.10;;;7.10;88.20;;;4.99;84.64;100387.13;5030446;28;20461;-77
2022/04/19 04:23:18;;;;;;;10.18;4.95;;;7.10;88.30;;;4.91;84.64;100374.41;5031483;28;20037;-78
2022/04/19 04:25:46;;;;;;;12.40;5.60;;;7.10;88.20;;;4.97;84.93;100384.59;5030355;28;20387;-77
2022/04/19 04:28:16;;;;;;;9.23;5.30;;;7.10;88.50;;;4.98;84.80;100380.88;5030098;28;20063;-77
2022/04/19 04:30:47;;;;;;;10.65;5.45;;;7.10;88.60;;;4.97;84.54;100378.34;5034496;28;20588;-77
2022/04/19 04:33:15;;;;;;;12.95;5.20;;;7.10;88.60;;;4.95;85.07;100375.81;5030344;28;20049;-77
2022/04/19 04:35:42;;;;;;;9.80;5.18;;;7.10;88.80;;;4.95;84.71;100383.91;5030492;28;20057;-77
2022/04/19 04:38:10;;;;;;;9.32;5.15;;;7.10;88.90;;;4.99;84.85;100393.38;5029773;28;20115;-77
2022/04/19 04:40:41;;;;;;;11.77;5.28;;;7.10;89.00;;;4.99;85.29;100384.41;5030987;28;20041;-77
2022/04/19 04:43:12;;;;;;;12.55;5.43;;;7.20;88.90;;;4.98;85.19;100385.44;5046364;28;20049;-77
2022/04/19 04:45:40;;;;;;;11.73;4.78;;;7.10;89.20;;;5.00;85.57;100388.81;5029887;28;20053;-77
2022/04/19 04:50:55;;;;;;;8.27;5.18;;;7.10;89.50;;;5.01;85.39;100388.69;5026932;28;20054;-77
2022/04/19 04:53:22;;;;;;;8.07;5.10;;;7.10;89.50;;;5.00;85.74;100384.28;5029867;28;20533;-77
2022/04/19 04:56:06;;;;;;;10.75;5.30;;;7.10;89.80;;;5.07;85.74;100390.75;5029751;28;20060;-77
2022/04/19 04:58:34;;;;;;;11.45;5.60;;;7.10;89.90;;;5.06;85.74;100389.09;5043932;28;20045;-77
2022/04/19 05:01:01;;;;;;;13.73;5.10;;;7.10;89.90;;;5.13;86.05;100393.88;5048695;28;20037;-77
2022/04/19 05:03:29;;;;;;;11.20;5.90;;;7.20;90.00;;;5.18;85.84;100396.94;5029894;28;20053;-77
2022/04/19 05:05:58;;;;;;;11.23;5.70;;;7.10;90.00;;;5.20;86.59;100394.97;5030195;28;20041;-77
2022/04/19 05:08:25;;;;;;;9.82;5.57;;;7.20;90.50;;;5.15;86.75;100405.34;5029545;28;20103;-78
2022/04/19 05:10:53;;;;;;;10.43;5.22;;;7.10;90.60;;;5.21;86.92;100402.88;5029536;28;20102;-76
2022/04/19 05:13:25;;;;;;;9.90;6.07;;;7.20;90.80;;;5.27;87.10;100396.88;5029633;28;20442;-77
2022/04/19 05:15:53;;;;;;;8.90;5.32;;;7.30;91.00;;;5.38;87.16;100393.09;5039810;28;20511;-76
2022/04/19 05:18:22;;;;;;;10.73;5.90;;;7.30;91.00;;;5.51;86.97;100400.81;5047135;28;20057;-77
2022/04/19 05:20:52;;;;;;;13.55;6.43;;;7.40;91.10;;;5.56;86.51;100392.25;5028744;28;20052;-77
2022/04/19 05:23:23;;;;;;;10.77;5.72;;;7.50;91.00;;;5.66;86.69;100396.56;5029071;28;20057;-77
2022/04/19 05:25:51;;;;;;;11.95;6.47;;;7.50;91.20;;;5.79;86.91;100390.78;5029199;28;20053;-77
2022/04/19 05:28:19;;;;;;;9.52;6.07;;;7.60;90.60;;;5.88;86.85;100392.53;5029229;28;20055;-76
2022/04/19 05:30:50;;;;;;;11.90;6.13;;;7.70;90.70;;;5.97;86.71;100389.91;5029190;28;20057;-77
2022/04/19 05:33:18;;;;;;;10.45;6.05;;;7.80;90.90;;;6.08;86.56;100389.66;5039316;28;20103;-76
2022/04/19 05:35:47;;;;;;;10.38;5.88;;;7.90;90.60;;;6.16;86.81;100395.09;5049271;28;20059;-77
2022/04/19 05:38:15;;;;;;;12.00;5.80;;;7.90;90.90;;;6.25;87.00;100393.31;5049000;28;20095;-76
2022/04/19 05:40:42;;;;;;;11.55;5.57;;;8.00;91.10;;;6.34;86.88;100392.38;5050582;28;20041;-76
2022/04/19 05:43:10;;;;;;;14.02;6.10;;;8.10;90.50;;;6.51;86.24;100389.72;5049254;28;20044;-77
2022/04/19 05:45:39;;;;;;;14.45;6.43;;;8.30;89.80;;;6.56;85.61;100387.41;5047613;28;20055;-76
2022/04/19 05:48:08;;;;;;;14.88;6.63;;;8.30;89.70;;;6.62;85.27;100389.44;5047060;28;20124;-77
2022/04/19 05:50:35;;;;;;;13.48;6.00;;;8.40;88.80;;;6.70;85.14;100389.50;5037226;28;20703;-76
2022/04/19 05:53:03;;;;;;;13.48;6.10;;;8.50;88.90;;;6.80;84.64;100390.19;5033990;28;20041;-76
2022/04/19 05:55:30;;;;;;;11.88;6.32;;;8.60;88.60;;;6.90;83.79;100392.78;5048840;28;20045;-76
2022/04/19 05:57:58;;;;;;;12.05;5.82;;;8.70;87.90;;;6.99;83.57;100394.50;5048647;28;20099;-76
2022/04/19 06:00:25;;;;;;;13.20;6.13;;;8.70;87.30;;;7.10;83.11;100389.78;5048502;28;20332;-76
2022/04/19 06:05:51;;;;;;;16.40;6.60;;;8.90;87.40;;;7.27;83.36;100386.09;4991333;28;20081;-76
2022/04/19 06:08:20;;;;;;;11.25;6.55;;;9.00;87.30;;;7.39;82.25;100390.19;5033812;28;20049;-76
2022/04/19 06:10:54;;;;;;;11.85;6.70;;;9.10;86.10;;;7.52;81.73;100386.13;5048493;28;20053;-76
2022/04/19 06:13:21;;;;;;;14.05;8.10;;;9.20;86.10;;;7.58;80.80;100399.03;5048690;28;20052;-76
2022/04/19 06:15:49;;;;;;;13.13;8.10;;;9.30;85.70;;;7.66;80.92;100390.06;5048184;28;20517;-77
2022/04/19 06:18:16;;;;;;;18.13;8.50;;;9.30;85.70;;;7.75;80.28;100391.72;5048597;28;20178;-77
2022/04/19 06:20:53;;;;;;;19.38;8.50;;;9.40;85.40;;;7.83;80.26;100391.75;5048276;28;20140;-78
2022/04/19 06:23:21;;;;;;;14.77;8.07;;;9.50;85.60;;;7.91;80.00;100390.88;5048377;28;20500;-77
2022/04/19 06:25:48;;;;;;;14.95;8.23;;;9.50;85.10;;;8.00;79.33;100392.59;5046618;28;20056;-77
2022/04/19 06:28:18;;;;;;;17.05;8.88;;;9.60;84.20;;;8.12;78.73;100391.19;5048008;28;20037;-77
2022/04/19 06:31:18;;;;;;;15.25;8.85;;;9.70;84.10;;;8.58;78.70;100391.44;5048043;28;20053;-77
2022/04/19 06:33:52;;;;;;;13.65;8.50;;;9.90;83.70;;;9.11;77.87;100388.19;5048432;28;20509;-77
2022/04/19 06:36:23;;;;;;;18.02;9.48;;;10.00;83.20;;;9.53;75.37;100384.16;5050639;28;20067;-77
2022/04/19 06:38:50;;;;;;;19.38;9.68;;;10.20;82.20;;;9.81;73.88;100380.91;5052319;28;20084;-77
2022/04/19 06:41:17;;;;;;;17.00;9.57;;;10.40;82.20;;;9.95;72.67;100383.63;5052395;28;20041;-77
2022/04/19 06:43:47;;;;;;;19.30;10.35;;;10.50;81.50;;;10.11;71.84;100382.66;5048545;28;20440;-77
2022/04/19 06:46:20;;;;;;;18.13;9.35;;;10.70;81.20;;;10.21;71.36;100381.56;5029541;28;20045;-77
2022/04/19 06:48:58;;;;;;;20.73;10.57;;;10.80;80.90;;;10.27;71.27;100378.91;5031822;28;20441;-78
2022/04/19 06:51:26;;;;;;;18.75;10.43;;;10.90;81.70;;;10.28;70.93;100388.78;5037714;28;20112;-77
2022/04/19 06:53:54;;;;;;;17.90;10.23;;;11.00;81.00;;;10.26;70.22;100389.97;5032399;28;20151;-77
2022/04/19 06:56:42;;;;;;;22.98;11.07;;;11.10;80.10;;;10.27;69.38;100397.13;5031808;28;20053;-77
2022/04/19 06:59:09;;;;;;;21.67;9.27;;;11.20;79.00;;;10.35;70.03;100391.63;5032228;28;20064;-77
2022/04/19 07:01:40;;;;;;;20.02;10.18;;;11.30;79.30;;;10.40;68.82;100394.63;5031734;28;20053;-78
2022/04/19 07:04:26;;;;;;;21.27;10.05;;;11.40;78.20;;;10.47;68.67;100392.88;5033262;28;20060;-78
2022/04/19 07:06:56;;;;;;;18.42;10.68;;;11.50;78.60;;;10.57;68.38;100396.13;5031398;28;20046;-80
2022/04/19 07:09:26;;;;;;;19.95;10.38;;;11.60;77.70;;;10.71;68.47;100393.59;5031972;28;20049;-80
2022/04/19 07:11:54;;;;;;;17.75;10.05;;;11.80;77.90;;;10.80;67.57;100392.47;5031145;28;20037;-80
2022/04/19 07:14:27;;;;;;;16.42;9.65;;;11.90;76.80;;;10.89;65.26;100390.47;5031867;28;20045;-78
2022/04/19 07:17:00;;;;;;;17.08;9.63;;;12.00;75.00;;;10.98;65.35;100385.78;5032825;28;20045;-78
2022/04/19 07:28:01;;;;;;;16.85;8.98;;;12.40;74.40;;;11.46;64.77;100391.56;5040925;23;20073;-77
2022/04/19 07:30:32;;;;;;;17.73;9.82;;;12.50;75.00;;;11.59;64.66;100386.25;5037369;28;20061;-77
2022/04/19 07:33:00;;;;;;;19.70;9.13;;;12.80;74.40;;;11.64;62.91;100386.50;5023956;28;20060;-77
2022/04/19 07:35:30;;;;;;;17.75;9.05;;;12.70;71.60;;;11.69;60.71;100389.50;5014621;28;20540;-76
2022/04/19 07:37:58;;;;;;;15.98;9.20;;;12.80;69.30;;;11.71;58.57;100395.59;5029070;28;20099;-76
2022/04/19 07:40:37;;;;;;;20.23;10.05;;;12.90;68.70;;;11.73;59.28;100398.16;5014055;28;20057;-76
2022/04/19 07:43:05;;;;;;;16.80;9.23;;;12.90;68.90;;;11.84;58.93;100394.03;5014241;28;20095;-76
2022/04/19 07:45:32;;;;;;;33.00;12.52;;;13.00;67.70;;;11.94;57.02;100394.59;5014513;28;20154;-76
2022/04/19 07:48:00;;;;;;;15.73;9.13;;;13.10;67.50;;;12.00;57.11;100398.41;5029603;28;20045;-79
2022/04/19 07:50:28;;;;;;;18.83;9.10;;;13.20;67.60;;;12.01;55.49;100389.19;5030906;28;20053;-80
2022/04/19 07:52:58;;;;;;;19.75;8.52;;;13.30;65.40;;;12.13;55.18;100387.63;5014024;28;20509;-74
2022/04/19 07:55:25;;;;;;;15.75;7.97;;;13.40;65.20;;;12.25;55.44;100390.63;5030181;28;20065;-78
2022/04/19 07:57:53;;;;;;;14.38;8.23;;;13.50;66.30;;;12.30;52.94;100391.72;5030319;28;20064;-78
2022/04/19 08:00:21;;;;;;;16.23;9.18;;;13.50;63.30;;;12.38;52.88;100396.19;5011975;28;20695;-77
2022/04/19 08:02:50;;;;;;;16.33;8.43;;;13.60;62.70;;;12.41;52.57;100398.50;5012359;28;20056;-77
2022/04/19 08:05:19;;;;;;;14.60;8.40;;;13.60;62.60;;;12.45;51.62;100393.47;5025451;28;20529;-77
2022/04/19 08:07:48;;;;;;;13.40;7.70;;;13.70;61.80;;;12.48;51.41;100387.63;5029192;28;20037;-77
2022/04/19 08:10:18;;;;;;;17.65;8.18;;;13.70;61.50;;;12.59;51.80;100392.53;5013876;28;20103;-77
2022/04/19 08:12:47;;;;;;;15.70;8.63;;;13.90;62.00;;;12.79;52.68;100389.06;5013238;28;20060;-78
2022/04/19 08:15:14;;;;;;;16.23;8.48;;;14.00;63.60;;;12.84;51.32;100395.59;5031114;28;20505;-77
2022/04/19 08:17:41;;;;;;;12.88;7.65;;;14.10;60.60;;;12.88;50.89;100399.63;5028555;28;20716;-78
2022/04/19 08:20:13;;;;;;;12.77;7.60;;;14.00;60.70;;;12.99;51.84;100397.38;5028119;28;20047;-81
2022/04/19 08:22:40;;;;;;;12.57;7.72;;;14.20;62.20;;;13.01;49.56;100403.47;5013295;28;20052;-81
2022/04/19 08:25:12;;;;;;;15.10;9.00;;;14.20;59.20;;;12.99;49.23;100394.63;5028900;28;20105;-81
2022/04/19 08:27:45;;;;;;;12.18;7.88;;;14.20;59.00;;;13.00;50.42;100388.09;5012295;28;20056;-82
2022/04/19 08:30:15;;;;;;;15.30;8.68;;;14.20;60.70;;;13.08;50.44;100385.22;5013068;28;20045;-92
2022/04/19 08:32:44;;;;;;;13.65;8.68;;;14.30;60.90;;;13.09;49.83;100386.88;5026537;28;20049;-92
2022/04/19 08:35:17;;;;;;;15.50;8.13;;;14.30;59.70;;;13.17;49.42;100388.59;5020220;28;20046;-91
2022/04/19 08:37:45;;;;;;;18.75;8.52;;;14.30;60.00;;;13.20;49.31;100382.72;5019397;28;20038;-91
2022/04/19 08:40:14;;;;;;;18.95;8.60;;;14.30;59.00;;;13.24;49.30;100393.03;4993989;28;20547;-91
2022/04/19 08:42:43;;;;;;;18.08;8.07;;;14.40;59.00;;;13.31;49.22;100387.63;5010259;28;20046;-91
2022/04/19 08:45:14;;;;;;;17.17;8.68;;;14.50;59.70;;;13.35;48.67;100385.34;5023377;28;20044;-87
2022/04/19 08:47:43;;;;;;;15.25;8.23;;;14.50;59.00;;;13.43;49.26;100376.94;5006611;28;20034;-90
2022/04/19 08:50:13;;;;;;;12.90;6.55;;;14.60;59.40;;;13.49;48.76;100371.47;5012862;28;20128;-90
2022/04/19 08:52:41;;;;;;;12.57;7.15;;;14.60;58.50;;;13.53;48.01;100368.34;5011839;28;20469;-90
2022/04/19 08:57:57;;;;;;;13.00;7.25;;;14.70;58.60;;;13.66;49.05;100382.88;5024055;28;20145;-89
2022/04/19 09:00:26;;;;;;;12.48;7.05;;;14.90;59.00;;;13.77;49.30;100369.63;5008723;28;20122;-92
2022/04/19 09:02:56;;;;;;;11.18;5.97;;;15.00;59.10;;;13.88;50.62;100374.47;5026727;28;20046;-91
2022/04/19 09:05:26;;;;;;;13.25;6.15;;;15.10;61.00;;;13.93;48.60;100374.69;5013960;28;20719;-93
2022/04/19 09:07:57;;;;;;;10.60;5.60;;;15.20;57.90;;;13.89;48.26;100371.50;5026302;28;20418;-91
2022/04/19 09:10:29;;;;;;;10.23;5.97;;;15.10;57.60;;;13.85;47.45;100378.47;5029354;28;20041;-91
2022/04/19 09:13:01;;;;;;;13.45;6.07;;;15.10;56.70;;;13.89;47.00;100381.63;5013238;28;20099;-88
2022/04/19 09:15:37;;;;;;;11.35;5.00;;;15.10;56.20;;;13.91;48.21;100371.31;5030169;28;20524;-89
2022/04/19 09:18:06;;;;;;;12.43;4.88;;;15.20;57.70;;;13.99;47.63;100373.84;5012784;28;20103;-81
2022/04/19 09:20:33;;;;;;;8.63;4.55;;;15.30;57.50;;;13.99;47.71;100373.84;5030365;28;20045;-81
2022/04/19 09:23:05;;;;;;;9.90;4.25;;;15.20;57.50;;;13.98;47.37;100385.84;5030721;28;20676;-92
2022/04/19 09:25:34;;;;;;;8.85;4.40;;;15.20;57.00;;;13.97;47.44;100378.66;5022888;28;20042;-93
2022/04/19 09:28:16;;;;;;;7.45;4.20;;;15.20;57.00;;;14.02;47.74;100380.78;5032677;28;20056;-93
2022/04/19 09:30:43;;;;;;;6.38;4.10;;;15.20;57.60;;;14.06;47.32;100377.41;5031254;28;20084;-90
2022/04/19 09:33:14;;;;;;;7.95;4.45;;;15.30;56.60;;;14.06;47.38;100374.69;5011652;28;20594;-89
2022/04/19 09:35:44;;;;;;;9.52;3.97;;;15.30;57.60;;;14.04;46.67;100385.00;5014924;28;20057;-94
2022/04/19 09:38:13;;;;;;;9.53;4.30;;;15.20;55.70;;;14.03;47.23;100366.91;5013258;28;20458;-93
2022/04/19 09:40:44;;;;;;;8.68;3.65;;;15.30;56.90;;;14.04;46.74;100379.53;5012429;28;20045;-93
2022/04/19 09:43:16;;;;;;;7.07;4.07;;;15.30;56.70;;;14.03;46.72;100366.91;5013578;28;20108;-94
2022/04/19 09:45:56;;;;;;;6.72;3.70;;;15.20;56.90;;;14.03;47.02;100364.16;5009345;28;20073;-87
2022/04/19 09:48:27;;;;;;;8.90;4.47;;;15.20;56.50;;;14.06;47.39;100355.53;5029961;28;20046;-86
2022/04/19 09:51:02;;;;;;;7.78;3.83;;;15.30;56.90;;;14.10;47.05;100355.94;5029700;28;20512;-85
2022/04/19 09:53:32;;;;;;;8.68;4.10;;;15.30;56.80;;;14.13;47.02;100350.06;5029617;28;20042;-84
2022/04/19 09:56:00;;;;;;;10.27;4.53;;;15.30;56.40;;;14.15;47.99;100358.06;5029747;28;20052;-82
2022/04/19 09:58:30;;;;;;;9.52;4.32;;;15.30;57.80;;;14.14;46.80;100361.84;5029258;28;20045;-84
2022/04/19 10:00:58;;;;;;;8.13;4.15;;;15.40;56.20;;;14.20;47.93;100358.25;5021708;28;20037;-78
2022/04/19 10:08:55;;;;;;;8.60;4.72;;;15.40;56.30;;;14.19;46.98;100349.19;5028887;28;20038;-78
2022/04/19 10:11:22;;;;;;;7.93;4.70;;;15.40;56.70;;;14.22;46.32;100345.19;5009783;28;20064;-78
2022/04/19 10:13:51;;;;;;;9.23;5.05;;;15.40;55.80;;;14.27;46.98;100350.88;5014007;28;20537;-78
2022/04/19 10:16:19;;;;;;;8.88;4.57;;;15.50;56.10;;;14.29;47.21;100343.28;5029410;28;20052;-78
2022/04/19 10:18:47;;;;;;;8.30;4.18;;;15.50;56.90;;;14.36;46.88;100335.91;5024179;28;20526;-78
2022/04/19 10:21:19;;;;;;;8.15;3.97;;;15.60;56.70;;;14.41;48.11;100340.72;5023958;28;20134;-78
2022/04/19 10:23:47;;;;;;;10.40;4.50;;;15.60;58.00;;;14.41;46.76;100341.59;5013779;28;20076;-78
2022/04/19 10:26:22;;;;;;;9.63;4.43;;;15.60;55.90;;;14.38;47.04;100331.06;5028935;28;20554;-78
2022/04/19 10:28:53;;;;;;;8.73;4.40;;;15.60;56.50;;;14.43;47.34;100333.13;5029029;28;20037;-78
2022/04/19 10:31:31;;;;;;;8.88;4.63;;;15.60;57.30;;;14.47;46.86;100327.03;5028239;28;20037;-78
2022/04/19 10:34:02;;;;;;;8.75;4.60;;;15.70;56.60;;;14.50;46.49;100327.66;5027629;28;20034;-77
2022/04/19 10:36:38;;;;;;;9.68;4.40;;;15.70;55.50;;;14.56;46.54;100338.56;5023642;28;20056;-78
2022/04/19 10:39:26;;;;;;;8.25;4.32;;;15.70;56.00;;;14.59;46.28;100329.16;5025264;28;20048;-78
2022/04/19 10:41:56;;;;;;;8.07;4.53;;;15.70;56.00;;;14.61;46.34;100329.75;5023997;28;20121;-77
2022/04/19 10:44:31;;;;;;;7.07;4.03;;;15.80;55.70;;;14.60;45.88;100325.31;5010229;28;20770;-78
2022/04/19 10:47:13;;;;;;;10.50;5.32;;;15.80;55.40;;;14.64;45.99;100321.09;5027964;28;20099;-78
2022/04/19 10:49:58;;;;;;;11.70;4.78;;;15.80;55.70;;;14.65;46.29;100320.06;5025971;28;20038;-78
2022/04/19 10:52:48;;;;;;;7.68;4.32;;;15.80;56.10;;;14.70;46.39;100320.25;5027141;28;20045;-78
2022/04/19 10:55:30;;;;;;;7.88;4.68;;;15.90;56.10;;;14.71;45.57;100327.41;5009606;28;20124;-78
2022/04/19 10:58:12;;;;;;;8.23;4.00;;;15.90;55.80;;;14.72;45.10;100320.88;5026703;28;20048;-78
2022/04/19 11:00:48;;;;;;;7.50;4.20;;;15.90;54.80;;;14.73;45.06;100319.81;5026092;28;20058;-78